createdAt,value
2019-05-03T00:00:27.415Z,99.99
2019-05-03T00:01:27.413Z,99.99
2019-05-03T00:02:27.438Z,99.99
2019-05-03T00:03:27.425Z,99.99
2019-05-03T00:04:27.443Z,99.99
2019-05-03T00:05:27.439Z,99.99
2019-05-03T00:06:27.447Z,99.99
2019-05-03T00:07:27.454Z,99.99
2019-05-03T00:08:27.461Z,99.99
2019-05-03T00:09:27.469Z,99.99
2019-05-03T00:10:27.472Z,99.99
2019-05-03T00:11:27.477Z,99.99
2019-05-03T00:12:27.480Z,99.99
2019-05-03T00:13:27.493Z,99.99
2019-05-03T00:14:27.493Z,99.99
2019-05-03T00:15:27.566Z,99.99
2019-05-03T00:16:27.510Z,99.99
2019-05-03T00:18:27.525Z,99.99
2019-05-03T00:19:27.529Z,99.99
2019-05-03T00:20:27.528Z,99.99
2019-05-03T00:21:27.539Z,99.99
2019-05-03T00:22:27.537Z,99.99
2019-05-03T00:23:27.548Z,99.99
2019-05-03T00:24:27.555Z,99.99
2019-05-03T00:25:27.578Z,99.99
2019-05-03T00:26:27.573Z,99.99
2019-05-03T00:27:27.586Z,99.99
2019-05-03T00:28:27.572Z,99.99
2019-05-03T00:29:27.613Z,99.99
2019-05-03T00:30:27.584Z,99.99
2019-05-03T00:31:27.593Z,99.99
2019-05-03T00:32:27.591Z,99.99
2019-05-03T00:33:27.608Z,99.99
2019-05-03T00:34:27.614Z,99.99
2019-05-03T00:35:27.619Z,99.99
2019-05-03T00:36:27.620Z,99.99
2019-05-03T00:37:27.622Z,99.99
2019-05-03T00:38:27.639Z,99.99
2019-05-03T00:39:27.650Z,99.99
2019-05-03T00:40:27.640Z,99.99
2019-05-03T00:41:27.650Z,99.99
2019-05-03T00:42:27.663Z,99.99
2019-05-03T00:43:27.667Z,99.99
2019-05-03T00:44:27.666Z,99.99
2019-05-03T00:45:27.672Z,99.99
2019-05-03T00:46:27.680Z,99.99
2019-05-03T00:47:27.682Z,99.99
2019-05-03T00:48:27.689Z,99.99
2019-05-03T00:49:27.699Z,99.99
2019-05-03T00:50:27.705Z,99.99
2019-05-03T00:51:27.708Z,99.99
2019-05-03T00:52:27.714Z,99.99
2019-05-03T00:53:27.717Z,99.99
2019-05-03T00:54:27.735Z,99.99
2019-05-03T00:55:27.728Z,99.99
2019-05-03T00:56:27.751Z,99.99
2019-05-03T00:57:27.813Z,99.99
2019-05-03T00:58:27.760Z,99.99
2019-05-03T00:59:27.750Z,99.99
2019-05-03T01:00:27.773Z,99.99
2019-05-03T01:01:27.776Z,99.99
2019-05-03T01:02:27.773Z,99.99
2019-05-03T01:03:27.783Z,99.99
2019-05-03T01:04:27.782Z,99.99
2019-05-03T01:05:27.792Z,99.99
2019-05-03T01:06:27.796Z,99.99
2019-05-03T01:07:27.801Z,99.99
2019-05-03T01:08:27.814Z,99.99
2019-05-03T01:09:27.813Z,99.99
2019-05-03T01:10:27.823Z,99.99
2019-05-03T01:11:27.823Z,99.99
2019-05-03T01:12:27.834Z,99.99
2019-05-03T01:13:27.840Z,99.99
2019-05-03T01:14:27.841Z,99.99
2019-05-03T01:15:27.851Z,99.99
2019-05-03T01:16:27.855Z,99.99
2019-05-03T01:17:27.951Z,99.99
2019-05-03T01:18:27.874Z,99.99
2019-05-03T01:19:27.878Z,99.99
2019-05-03T01:20:27.893Z,99.99
2019-05-03T01:21:27.888Z,99.99
2019-05-03T01:22:27.889Z,99.99
2019-05-03T01:23:27.894Z,99.99
2019-05-03T01:24:27.901Z,99.99
2019-05-03T01:25:32.316Z,99.99
2019-05-03T01:26:27.909Z,99.99
2019-05-03T01:27:28.003Z,99.99
2019-05-03T01:28:27.921Z,99.99
2019-05-03T01:29:27.931Z,99.99
2019-05-03T01:30:27.935Z,99.99
2019-05-03T01:31:27.938Z,99.99
2019-05-03T01:32:27.954Z,99.99
2019-05-03T01:33:27.956Z,99.99
2019-05-03T01:34:27.977Z,99.99
2019-05-03T01:35:27.961Z,99.99
2019-05-03T01:36:27.967Z,99.99
2019-05-03T01:37:27.972Z,99.99
2019-05-03T01:38:27.982Z,99.99
2019-05-03T01:39:27.986Z,99.99
2019-05-03T01:40:28.039Z,99.99
2019-05-03T01:41:28.006Z,99.99
2019-05-03T01:42:28.005Z,99.99
2019-05-03T01:43:28.008Z,99.99
2019-05-03T01:44:28.014Z,99.99
2019-05-03T01:45:28.021Z,99.99
2019-05-03T01:46:28.022Z,99.99
2019-05-03T01:47:28.038Z,99.99
2019-05-03T01:48:28.042Z,99.99
2019-05-03T01:49:28.044Z,99.99
2019-05-03T01:50:28.133Z,99.99
2019-05-03T01:52:28.063Z,99.99
2019-05-03T01:53:28.065Z,99.99
2019-05-03T01:54:28.070Z,99.99
2019-05-03T01:55:28.076Z,99.99
2019-05-03T01:56:28.096Z,99.99
2019-05-03T01:57:28.089Z,99.99
2019-05-03T01:58:28.098Z,99.99
2019-05-03T01:59:28.099Z,99.99
2019-05-03T02:00:28.107Z,99.99
2019-05-03T02:01:28.113Z,99.99
2019-05-03T02:02:28.120Z,99.99
2019-05-03T02:03:28.125Z,99.99
2019-05-03T02:04:28.134Z,99.99
2019-05-03T02:06:28.141Z,99.99
2019-05-03T02:07:28.135Z,99.99
2019-05-03T02:08:28.148Z,99.99
2019-05-03T02:09:28.158Z,99.99
2019-05-03T02:10:28.164Z,99.99
2019-05-03T02:11:28.169Z,99.99
2019-05-03T02:12:28.174Z,99.99
2019-05-03T02:13:28.178Z,99.99
2019-05-03T02:14:28.186Z,99.99
2019-05-03T02:15:28.176Z,99.99
2019-05-03T02:16:28.208Z,99.99
2019-05-03T02:17:28.209Z,99.99
2019-05-03T02:18:28.269Z,99.99
2019-05-03T02:19:28.212Z,99.99
2019-05-03T02:20:28.228Z,99.99
2019-05-03T02:21:28.224Z,99.99
2019-05-03T02:22:28.226Z,99.99
2019-05-03T02:23:28.232Z,99.99
2019-05-03T02:24:28.255Z,99.99
2019-05-03T02:25:28.250Z,99.99
2019-05-03T02:26:28.257Z,99.99
2019-05-03T02:27:28.256Z,99.99
2019-05-03T02:28:28.260Z,99.99
2019-05-03T02:29:28.270Z,99.99
2019-05-03T02:30:28.273Z,99.99
2019-05-03T02:31:28.289Z,99.99
2019-05-03T02:32:28.288Z,99.99
2019-05-03T02:33:28.296Z,99.99
2019-05-03T02:34:28.302Z,99.99
2019-05-03T02:35:28.313Z,99.99
2019-05-03T02:36:28.308Z,99.99
2019-05-03T02:37:28.313Z,99.99
2019-05-03T02:38:28.412Z,99.99
2019-05-03T02:39:28.321Z,99.99
2019-05-03T02:40:28.360Z,99.99
2019-05-03T02:41:28.409Z,99.99
2019-05-03T02:42:28.490Z,99.99
2019-05-03T02:43:28.517Z,99.99
2019-05-03T02:44:28.357Z,99.99
2019-05-03T02:45:28.383Z,99.99
2019-05-03T02:46:28.467Z,99.99
2019-05-03T02:47:28.473Z,99.99
2019-05-03T02:48:28.418Z,99.99
2019-05-03T02:49:28.380Z,99.99
2019-05-03T02:50:28.388Z,99.99
2019-05-03T02:51:28.417Z,99.99
2019-05-03T02:52:28.399Z,99.99
2019-05-03T02:53:28.405Z,99.99
2019-05-03T02:54:28.407Z,99.99
2019-05-03T02:55:28.421Z,99.99
2019-05-03T02:56:28.439Z,99.99
2019-05-03T02:57:28.452Z,99.99
2019-05-03T02:58:28.430Z,99.99
2019-05-03T02:59:28.437Z,99.99
2019-05-03T03:00:28.444Z,99.99
2019-05-03T03:01:28.456Z,99.99
2019-05-03T03:02:28.462Z,99.99
2019-05-03T03:03:28.458Z,99.99
2019-05-03T03:04:28.457Z,99.99
2019-05-03T03:05:28.474Z,99.99
2019-05-03T03:06:28.474Z,99.99
2019-05-03T03:07:28.486Z,99.99
2019-05-03T03:08:28.505Z,99.99
2019-05-03T03:09:28.493Z,99.99
2019-05-03T03:10:28.501Z,99.99
2019-05-03T03:11:28.509Z,99.99
2019-05-03T03:12:28.515Z,99.99
2019-05-03T03:13:28.535Z,99.99
2019-05-03T03:14:28.521Z,99.99
2019-05-03T03:15:28.524Z,99.99
2019-05-03T03:16:28.533Z,99.99
2019-05-03T03:17:28.541Z,99.99
2019-05-03T03:18:28.543Z,99.99
2019-05-03T03:19:28.551Z,99.99
2019-05-03T03:20:28.554Z,99.99
2019-05-03T03:21:28.562Z,99.99
2019-05-03T03:22:28.574Z,99.99
2019-05-03T03:23:28.687Z,99.99
2019-05-03T03:24:28.583Z,99.99
2019-05-03T03:25:28.584Z,99.99
2019-05-03T03:26:37.256Z,99.99
2019-05-03T03:27:28.593Z,99.99
2019-05-03T03:28:28.598Z,99.99
2019-05-03T05:23:05.782Z,92.32
2019-05-03T05:24:05.823Z,91.84
2019-05-03T05:25:05.682Z,91.75
2019-05-03T05:26:05.718Z,90.89
2019-05-03T05:27:05.701Z,91.94
2019-05-03T05:28:05.703Z,91.37
2019-05-03T05:29:05.712Z,90.89
2019-05-03T05:30:05.712Z,91.46
2019-05-03T05:31:05.723Z,90.61
2019-05-03T05:32:05.721Z,90.42
2019-05-03T05:33:05.730Z,89.94
2019-05-03T05:34:08.561Z,90.13
2019-05-03T05:35:05.734Z,89.56
2019-05-03T05:36:05.749Z,88.51
2019-05-03T05:38:05.761Z,88.60
2019-05-03T05:39:05.768Z,88.42
2019-05-03T05:40:05.776Z,88.60
2019-05-03T05:41:05.777Z,88.51
2019-05-03T05:42:05.787Z,88.65
2019-05-03T05:43:05.794Z,88.75
2019-05-03T05:44:05.799Z,87.51
2019-05-03T05:45:05.795Z,87.23
2019-05-03T05:46:05.807Z,87.75
2019-05-03T05:47:05.821Z,88.04
2019-05-03T05:48:05.823Z,87.98
2019-05-03T05:49:05.826Z,87.18
2019-05-03T05:50:05.835Z,87.75
2019-05-03T05:51:05.846Z,89.08
2019-05-03T05:52:05.845Z,88.42
2019-05-03T05:53:05.925Z,87.27
2019-05-03T05:54:05.864Z,85.75
2019-05-03T05:55:05.867Z,86.22
2019-05-03T05:56:05.872Z,86.22
2019-05-03T05:57:08.419Z,86.80
2019-05-03T05:58:08.152Z,86.61
2019-05-03T05:59:05.883Z,86.61
2019-05-03T06:00:05.902Z,86.51
2019-05-03T06:01:05.909Z,85.28
2019-05-03T06:02:05.917Z,84.17
2019-05-03T06:03:05.920Z,83.80
2019-05-03T06:04:05.927Z,83.13
2019-05-03T06:05:05.958Z,82.23
2019-05-03T06:06:05.948Z,82.56
2019-05-03T06:07:05.961Z,82.84
2019-05-03T06:08:05.959Z,81.41
2019-05-03T06:09:06.116Z,82.18
2019-05-03T06:10:05.983Z,82.37
2019-05-03T06:11:05.991Z,81.89
2019-05-03T06:12:05.996Z,81.41
2019-05-03T06:13:06.006Z,81.60
2019-05-03T06:14:06.016Z,81.03
2019-05-03T06:15:06.030Z,80.69
2019-05-03T06:16:06.039Z,80.60
2019-05-03T06:17:06.059Z,80.98
2019-05-03T06:18:06.054Z,80.12
2019-05-03T06:19:06.074Z,79.64
2019-05-03T06:20:06.073Z,79.07
2019-05-03T06:21:06.110Z,79.36
2019-05-03T06:22:06.094Z,78.98
2019-05-03T06:23:06.107Z,79.27
2019-05-03T06:24:06.116Z,78.41
2019-05-03T06:25:06.717Z,78.41
2019-05-03T06:26:06.134Z,78.98
2019-05-03T06:27:06.140Z,79.74
2019-05-03T06:28:17.759Z,79.36
2019-05-03T06:29:06.162Z,79.36
2019-05-03T06:30:06.162Z,79.49
2019-05-03T06:31:06.184Z,79.11
2019-05-03T06:32:06.192Z,79.27
2019-05-03T06:33:06.197Z,78.59
2019-05-03T06:34:06.212Z,78.16
2019-05-03T06:35:06.222Z,78.73
2019-05-03T06:36:06.230Z,78.54
2019-05-03T06:37:06.237Z,78.35
2019-05-03T06:38:06.247Z,77.78
2019-05-03T06:39:08.327Z,76.44
2019-05-03T06:40:06.322Z,76.54
2019-05-03T06:41:06.277Z,76.64
2019-05-03T06:42:10.045Z,76.54
2019-05-03T06:43:09.771Z,76.82
2019-05-03T06:44:06.304Z,77.11
2019-05-03T06:45:10.542Z,77.11
2019-05-03T06:46:06.322Z,77.30
2019-05-03T06:47:10.349Z,76.92
2019-05-03T06:48:06.347Z,77.11
2019-05-03T06:49:10.004Z,76.86
2019-05-03T06:50:06.370Z,76.39
2019-05-03T06:51:10.975Z,76.20
2019-05-03T06:52:06.393Z,74.29
2019-05-03T06:53:12.669Z,74.29
2019-05-03T06:54:06.435Z,73.91
2019-05-03T06:55:10.545Z,73.81
2019-05-03T06:56:06.436Z,74.10
2019-05-03T06:57:09.484Z,74.48
2019-05-03T06:58:06.471Z,74.48
2019-05-03T06:59:06.471Z,73.96
2019-05-03T07:00:06.484Z,74.25
2019-05-03T07:01:06.520Z,75.01
2019-05-03T07:02:06.504Z,75.68
2019-05-03T07:03:06.510Z,75.59
2019-05-03T07:04:06.523Z,74.63
2019-05-03T07:05:06.537Z,74.25
2019-05-03T07:06:06.543Z,74.25
2019-05-03T07:07:06.558Z,73.96
2019-05-03T07:08:06.560Z,74.25
2019-05-03T07:09:06.575Z,74.19
2019-05-03T07:10:06.582Z,74.35
2019-05-03T07:11:06.599Z,74.25
2019-05-03T07:12:06.604Z,74.10
2019-05-03T07:13:08.927Z,73.21
2019-05-03T07:14:06.628Z,73.39
2019-05-03T07:15:06.682Z,73.30
2019-05-03T07:16:06.650Z,73.68
2019-05-03T07:17:06.663Z,74.73
2019-05-03T07:18:06.666Z,74.54
2019-05-03T07:19:06.671Z,74.25
2019-05-03T07:20:06.686Z,72.63
2019-05-03T07:21:06.709Z,73.21
2019-05-03T07:22:06.703Z,73.77
2019-05-03T07:23:06.715Z,74.25
2019-05-03T07:24:06.721Z,74.16
2019-05-03T07:25:06.760Z,74.48
2019-05-03T07:27:06.757Z,73.43
2019-05-03T07:28:06.756Z,72.44
2019-05-03T07:29:06.771Z,72.92
2019-05-03T07:30:06.785Z,73.21
2019-05-03T07:31:06.783Z,73.49
2019-05-03T07:32:06.793Z,73.01
2019-05-03T07:33:06.834Z,72.92
2019-05-03T07:34:06.810Z,73.30
2019-05-03T07:35:06.815Z,74.25
2019-05-03T07:36:06.839Z,74.06
2019-05-03T07:37:06.838Z,73.81
2019-05-03T07:38:06.844Z,73.43
2019-05-03T07:39:06.848Z,72.28
2019-05-03T07:40:06.859Z,72.34
2019-05-03T07:41:06.869Z,72.63
2019-05-03T07:42:07.015Z,72.72
2019-05-03T07:43:06.884Z,73.01
2019-05-03T07:44:06.897Z,73.01
2019-05-03T07:46:06.904Z,72.92
2019-05-03T07:47:06.926Z,73.01
2019-05-03T07:48:06.920Z,73.30
2019-05-03T07:49:06.931Z,73.58
2019-05-03T07:50:06.941Z,74.35
2019-05-03T07:51:06.953Z,73.96
2019-05-03T07:52:06.955Z,73.14
2019-05-03T07:53:06.964Z,72.96
2019-05-03T07:54:06.997Z,72.03
2019-05-03T07:55:06.989Z,71.08
2019-05-03T07:56:06.998Z,69.59
2019-05-03T07:57:07.013Z,68.16
2019-05-03T07:58:07.029Z,66.92
2019-05-03T07:59:07.033Z,67.91
2019-05-03T08:00:07.081Z,67.40
2019-05-03T08:01:09.793Z,67.52
2019-05-03T08:02:07.069Z,66.66
2019-05-03T08:03:07.074Z,65.64
2019-05-03T08:04:07.098Z,64.09
2019-05-03T08:05:07.115Z,64.09
2019-05-03T08:06:07.140Z,64.47
2019-05-03T08:07:19.344Z,64.31
2019-05-03T08:08:07.154Z,64.31
2019-05-03T08:09:07.161Z,63.99
2019-05-03T08:10:07.172Z,64.56
2019-05-03T08:11:07.176Z,64.91
2019-05-03T08:12:07.192Z,64.25
2019-05-03T08:13:07.211Z,64.25
2019-05-03T08:14:07.217Z,63.76
2019-05-03T08:15:07.229Z,63.76
2019-05-03T08:16:07.242Z,62.34
2019-05-03T08:17:07.253Z,62.68
2019-05-03T08:19:07.275Z,63.10
2019-05-03T08:20:07.286Z,61.76
2019-05-03T08:21:07.291Z,60.46
2019-05-03T08:22:07.373Z,60.46
2019-05-03T08:23:07.320Z,60.27
2019-05-03T08:24:07.329Z,60.36
2019-05-03T08:25:07.358Z,60.39
2019-05-03T08:26:07.359Z,63.45
2019-05-03T08:27:07.379Z,61.57
2019-05-03T08:28:07.384Z,61.09
2019-05-03T08:29:16.149Z,60.20
2019-05-03T08:30:07.408Z,60.58
2019-05-03T08:31:08.381Z,61.32
2019-05-03T08:32:07.438Z,62.46
2019-05-03T08:33:07.451Z,61.38
2019-05-03T08:34:07.468Z,61.95
2019-05-03T08:35:07.478Z,62.81
2019-05-03T08:36:07.486Z,63.92
2019-05-03T08:37:07.501Z,63.76
2019-05-03T08:38:07.517Z,63.00
2019-05-03T08:39:07.542Z,61.95
2019-05-03T08:40:07.534Z,62.52
2019-05-03T08:41:07.548Z,62.24
2019-05-03T08:42:07.559Z,61.47
2019-05-03T08:43:07.569Z,59.76
2019-05-03T08:44:07.575Z,58.07
2019-05-03T08:45:08.145Z,57.68
2019-05-03T08:46:07.604Z,57.59
2019-05-03T08:47:07.614Z,56.82
2019-05-03T08:48:07.620Z,56.82
2019-05-03T08:49:07.640Z,57.04
2019-05-03T08:50:07.665Z,57.14
2019-05-03T08:51:07.662Z,57.43
2019-05-03T08:52:07.669Z,57.04
2019-05-03T08:53:07.691Z,56.85
2019-05-03T08:54:07.701Z,57.26
2019-05-03T08:55:07.730Z,57.07
2019-05-03T08:56:07.728Z,56.31
2019-05-03T08:57:07.745Z,55.57
2019-05-03T08:58:07.753Z,54.36
2019-05-03T08:59:07.774Z,53.11
2019-05-03T09:00:07.791Z,52.83
2019-05-03T09:01:07.796Z,53.20
2019-05-03T09:02:14.008Z,52.92
2019-05-03T09:03:07.826Z,53.08
2019-05-03T09:04:07.838Z,53.94
2019-05-03T09:05:07.855Z,54.88
2019-05-03T09:06:07.864Z,55.54
2019-05-03T09:07:07.978Z,55.71
2019-05-03T09:08:07.893Z,57.04
2019-05-03T09:09:07.903Z,57.21
2019-05-03T09:10:12.238Z,58.36
2019-05-03T09:11:07.931Z,58.64
2019-05-03T09:12:07.934Z,58.07
2019-05-03T09:13:07.970Z,58.36
2019-05-03T09:14:07.953Z,57.68
2019-05-03T09:15:07.968Z,57.40
2019-05-03T09:16:08.023Z,57.37
2019-05-03T09:17:07.991Z,57.59
2019-05-03T09:18:07.996Z,57.85
2019-05-03T09:19:08.026Z,58.26
2019-05-03T09:20:08.034Z,57.53
2019-05-03T09:21:08.043Z,56.02
2019-05-03T09:22:08.062Z,55.07
2019-05-03T09:23:08.059Z,54.68
2019-05-03T09:24:08.068Z,54.59
2019-05-03T09:25:08.075Z,54.88
2019-05-03T09:26:08.119Z,54.78
2019-05-03T09:27:08.103Z,54.88
2019-05-03T09:28:08.118Z,55.52
2019-05-03T09:29:08.126Z,55.64
2019-05-03T09:30:08.153Z,56.38
2019-05-03T09:31:08.163Z,55.74
2019-05-03T09:32:08.166Z,56.02
2019-05-03T09:33:09.214Z,55.99
2019-05-03T09:34:08.429Z,56.31
2019-05-03T09:35:08.204Z,55.45
2019-05-03T09:36:08.277Z,54.21
2019-05-03T09:37:08.240Z,53.82
2019-05-03T09:38:08.237Z,54.11
2019-05-03T09:39:08.245Z,54.21
2019-05-03T09:40:08.256Z,54.88
2019-05-03T09:41:08.270Z,54.88
2019-05-03T09:42:08.281Z,55.64
2019-05-03T09:43:08.288Z,55.04
2019-05-03T09:44:08.908Z,55.87
2019-05-03T09:45:08.318Z,57.02
2019-05-03T09:46:08.325Z,57.65
2019-05-03T09:47:08.332Z,58.33
2019-05-03T09:48:08.346Z,59.38
2019-05-03T09:49:13.294Z,59.66
2019-05-03T09:50:08.370Z,59.85
2019-05-03T09:51:08.378Z,59.38
2019-05-03T09:52:08.732Z,58.83
2019-05-03T09:53:09.105Z,57.68
2019-05-03T09:54:08.414Z,56.47
2019-05-03T09:55:08.420Z,55.42
2019-05-03T09:56:08.533Z,54.68
2019-05-03T09:57:08.460Z,54.02
2019-05-03T09:58:08.456Z,54.04
2019-05-03T09:59:08.467Z,53.18
2019-05-03T10:00:08.475Z,52.99
2019-05-03T10:01:08.722Z,53.16
2019-05-03T10:02:08.512Z,53.89
2019-05-03T10:03:08.521Z,55.32
2019-05-03T10:04:08.529Z,55.71
2019-05-03T10:05:08.535Z,56.47
2019-05-03T10:06:08.560Z,56.67
2019-05-03T10:07:08.564Z,56.28
2019-05-03T10:08:08.578Z,56.47
2019-05-03T10:09:08.578Z,56.57
2019-05-03T10:10:08.583Z,56.57
2019-05-03T10:11:08.602Z,56.67
2019-05-03T10:12:08.617Z,56.47
2019-05-03T10:13:14.442Z,56.67
2019-05-03T10:14:08.623Z,55.64
2019-05-03T10:15:08.647Z,55.35
2019-05-03T10:16:08.663Z,55.00
2019-05-03T10:17:08.744Z,54.33
2019-05-03T10:18:10.941Z,53.91
2019-05-03T10:19:08.685Z,52.75
2019-05-03T10:20:08.704Z,51.79
2019-05-03T10:21:08.711Z,51.22
2019-05-03T10:22:08.738Z,49.50
2019-05-03T10:23:08.743Z,49.40
2019-05-03T10:24:08.752Z,48.25
2019-05-03T10:25:08.767Z,47.58
2019-05-03T10:26:08.780Z,47.80
2019-05-03T10:27:09.486Z,46.19
2019-05-03T10:28:08.827Z,45.36
2019-05-03T10:29:08.842Z,44.20
2019-05-03T10:30:12.973Z,43.51
2019-05-03T10:31:08.861Z,44.26
2019-05-03T10:32:08.864Z,45.12
2019-05-03T10:33:08.892Z,46.08
2019-05-03T10:34:08.903Z,48.07
2019-05-03T10:35:08.909Z,48.73
2019-05-03T10:36:08.923Z,49.48
2019-05-03T10:37:08.937Z,50.41
2019-05-03T10:38:08.960Z,51.36
2019-05-03T10:39:08.968Z,52.39
2019-05-03T10:40:08.981Z,52.96
2019-05-03T10:41:08.985Z,53.25
2019-05-03T10:42:08.998Z,54.02
2019-05-03T10:43:09.020Z,54.21
2019-05-03T10:44:09.019Z,54.47
2019-05-03T10:45:09.047Z,54.85
2019-05-03T10:46:09.042Z,55.40
2019-05-03T10:47:09.064Z,55.75
2019-05-03T10:48:09.068Z,56.41
2019-05-03T10:49:09.087Z,57.59
2019-05-03T10:50:09.121Z,57.21
2019-05-03T10:51:09.101Z,56.95
2019-05-03T10:52:09.114Z,56.57
2019-05-03T10:53:09.138Z,55.64
2019-05-03T10:54:09.132Z,55.74
2019-05-03T10:55:09.145Z,55.45
2019-05-03T10:56:09.157Z,55.26
2019-05-03T10:57:09.159Z,54.78
2019-05-03T10:58:09.184Z,53.88
2019-05-03T10:59:09.182Z,52.75
2019-05-03T11:00:09.200Z,52.50
2019-05-03T11:01:09.213Z,52.04
2019-05-03T11:02:09.216Z,51.01
2019-05-03T11:03:09.230Z,51.18
2019-05-03T11:04:09.250Z,50.20
2019-05-03T11:05:09.274Z,51.54
2019-05-03T11:06:09.260Z,51.61
2019-05-03T11:07:09.292Z,52.01
2019-05-03T11:08:09.288Z,50.99
2019-05-03T11:09:09.304Z,50.03
2019-05-03T11:10:09.326Z,49.91
2019-05-03T11:11:09.325Z,49.81
2019-05-03T11:12:09.336Z,48.93
2019-05-03T11:13:09.355Z,48.71
2019-05-03T11:14:09.365Z,48.68
2019-05-03T11:15:09.422Z,49.23
2019-05-03T11:16:09.387Z,49.90
2019-05-03T11:17:09.397Z,50.95
2019-05-03T11:18:09.421Z,51.15
2019-05-03T11:19:09.431Z,51.53
2019-05-03T11:20:09.443Z,51.91
2019-05-03T11:21:09.449Z,51.91
2019-05-03T11:22:09.568Z,52.20
2019-05-03T11:23:09.488Z,52.10
2019-05-03T11:24:09.477Z,51.72
2019-05-03T11:25:09.493Z,52.58
2019-05-03T11:26:09.504Z,52.20
2019-05-03T11:27:09.513Z,52.46
2019-05-03T11:28:09.529Z,52.84
2019-05-03T11:29:09.548Z,53.03
2019-05-03T11:30:09.922Z,52.75
2019-05-03T11:31:09.578Z,52.55
2019-05-03T11:32:11.003Z,53.13
2019-05-03T11:33:09.577Z,53.99
2019-05-03T11:34:09.617Z,54.88
2019-05-03T11:35:11.690Z,53.56
2019-05-03T11:36:09.600Z,51.68
2019-05-03T11:37:09.622Z,50.31
2019-05-03T11:38:09.631Z,50.36
2019-05-03T11:39:09.644Z,49.43
2019-05-03T11:40:09.658Z,47.46
2019-05-03T11:41:09.687Z,46.22
2019-05-03T11:42:09.683Z,46.53
2019-05-03T11:43:09.696Z,45.28
2019-05-03T11:44:09.703Z,45.30
2019-05-03T11:45:09.714Z,44.87
2019-05-03T11:46:09.732Z,42.00
2019-05-03T11:47:09.820Z,41.70
2019-05-03T11:48:09.755Z,43.02
2019-05-03T11:49:09.790Z,43.77
2019-05-03T11:50:09.801Z,43.74
2019-05-03T11:51:09.854Z,44.30
2019-05-03T11:52:09.804Z,45.40
2019-05-03T11:53:09.827Z,48.64
2019-05-03T11:54:09.838Z,48.93
2019-05-03T11:55:11.850Z,49.48
2019-05-03T11:56:09.876Z,50.81
2019-05-03T11:57:09.957Z,51.42
2019-05-03T11:59:09.892Z,47.71
2019-05-03T12:00:09.907Z,45.25
2019-05-03T12:01:15.828Z,42.91
2019-05-03T12:02:09.946Z,40.57
2019-05-03T12:03:09.948Z,38.14
2019-05-03T12:04:09.950Z,38.95
2019-05-03T12:05:10.004Z,40.93
2019-05-03T12:06:09.986Z,43.16
2019-05-03T12:07:10.005Z,42.49
2019-05-03T12:08:10.015Z,42.33
2019-05-03T12:09:10.031Z,41.72
2019-05-03T12:10:26.569Z,37.60
2019-05-03T12:11:10.054Z,36.54
2019-05-03T12:12:10.083Z,36.33
2019-05-03T12:13:10.082Z,37.46
2019-05-03T12:14:10.103Z,37.56
2019-05-03T12:15:10.134Z,37.95
2019-05-03T12:16:18.044Z,37.68
2019-05-03T12:17:19.522Z,36.79
2019-05-03T12:18:10.776Z,37.12
2019-05-03T12:19:16.910Z,39.01
2019-05-03T12:20:11.687Z,40.67
2019-05-03T12:21:11.504Z,43.01
2019-05-03T12:22:10.866Z,44.35
2019-05-03T12:23:10.843Z,45.02
2019-05-03T12:24:10.803Z,45.67
2019-05-03T12:25:11.376Z,46.25
2019-05-03T12:26:13.422Z,47.03
2019-05-03T12:27:10.290Z,46.10
2019-05-03T12:28:10.305Z,44.70
2019-05-03T12:29:10.318Z,43.48
2019-05-03T12:30:10.336Z,42.73
2019-05-03T12:31:25.912Z,42.64
2019-05-03T12:32:10.364Z,42.20
2019-05-03T12:33:10.380Z,41.14
2019-05-03T12:34:10.390Z,41.08
2019-05-03T12:35:10.417Z,43.60
2019-05-03T12:36:10.420Z,45.52
2019-05-03T12:37:10.443Z,45.83
2019-05-03T12:38:10.447Z,44.08
2019-05-03T12:39:24.087Z,41.26
2019-05-03T12:40:10.488Z,39.26
2019-05-03T12:41:10.508Z,39.03
2019-05-03T12:42:10.504Z,40.33
2019-05-03T12:43:10.524Z,41.20
2019-05-03T12:45:10.559Z,42.47
2019-05-03T12:46:10.566Z,42.84
2019-05-03T12:47:10.590Z,43.51
2019-05-03T12:48:10.688Z,44.26
2019-05-03T12:49:10.608Z,45.12
2019-05-03T12:50:10.621Z,45.50
2019-05-03T12:51:11.005Z,45.31
2019-05-03T12:52:11.236Z,45.98
2019-05-03T12:53:10.653Z,45.81
2019-05-03T12:54:10.668Z,44.82
2019-05-03T12:55:10.786Z,43.34
2019-05-03T12:56:13.338Z,44.37
2019-05-03T12:57:10.709Z,45.31
2019-05-03T12:58:10.736Z,46.26
2019-05-03T12:59:10.733Z,46.75
2019-05-03T13:00:10.748Z,47.42
2019-05-03T13:01:10.762Z,47.13
2019-05-03T13:02:10.764Z,46.82
2019-05-03T13:03:10.803Z,47.56
2019-05-03T13:04:10.792Z,48.59
2019-05-03T13:05:10.891Z,49.80
2019-05-03T13:06:10.820Z,50.76
2019-05-03T13:07:10.828Z,51.62
2019-05-03T13:08:10.851Z,51.72
2019-05-03T13:09:10.854Z,51.62
2019-05-03T13:10:10.863Z,51.43
2019-05-03T13:11:10.875Z,50.79
2019-05-03T13:12:11.024Z,50.24
2019-05-03T13:13:10.892Z,48.66
2019-05-03T13:14:10.912Z,46.50
2019-05-03T13:15:10.918Z,43.79
2019-05-03T13:16:10.926Z,43.10
2019-05-03T13:17:11.371Z,42.40
2019-05-03T13:18:10.955Z,42.96
2019-05-03T13:19:10.970Z,44.06
2019-05-03T13:20:10.980Z,46.12
2019-05-03T13:21:10.985Z,47.94
2019-05-03T13:22:11.110Z,48.61
2019-05-03T13:23:12.917Z,49.11
2019-05-03T13:24:22.473Z,47.37
2019-05-03T13:25:11.040Z,44.82
2019-05-03T13:26:11.048Z,43.48
2019-05-03T13:27:11.069Z,44.24
2019-05-03T13:28:11.073Z,43.79
2019-05-03T13:29:11.097Z,43.02
2019-05-03T13:30:11.099Z,42.66
2019-05-03T13:31:11.115Z,42.54
2019-05-03T13:32:11.123Z,43.00
2019-05-03T13:33:11.135Z,43.31
2019-05-03T13:34:11.150Z,42.76
2019-05-03T13:35:11.158Z,41.79
2019-05-03T13:36:11.190Z,41.50
2019-05-03T13:37:11.189Z,41.83
2019-05-03T13:38:11.209Z,43.99
2019-05-03T13:39:14.475Z,46.08
2019-05-03T13:40:11.307Z,47.39
2019-05-03T13:41:11.254Z,48.25
2019-05-03T13:42:11.256Z,49.40
2019-05-03T13:43:11.268Z,49.60
2019-05-03T13:45:11.292Z,49.24
2019-05-03T13:46:11.307Z,48.47
2019-05-03T13:47:11.331Z,47.99
2019-05-03T13:48:12.349Z,48.16
2019-05-03T13:49:11.341Z,48.73
2019-05-03T13:50:11.360Z,49.31
2019-05-03T13:51:11.364Z,49.86
2019-05-03T13:52:11.392Z,51.17
2019-05-03T13:53:11.387Z,52.42
2019-05-03T13:54:11.399Z,52.99
2019-05-03T13:55:11.412Z,53.34
2019-05-03T13:56:11.453Z,53.63
2019-05-03T13:57:11.456Z,53.73
2019-05-03T13:58:11.467Z,54.11
2019-05-03T13:59:18.778Z,54.02
2019-05-03T14:00:11.479Z,54.02
2019-05-03T14:01:11.483Z,53.92
2019-05-03T14:03:11.505Z,53.37
2019-05-03T14:04:11.618Z,52.48
2019-05-03T14:05:11.509Z,53.25
2019-05-03T14:06:11.526Z,52.54
2019-05-03T14:07:11.549Z,51.61
2019-05-03T14:08:11.532Z,49.67
2019-05-03T14:09:11.568Z,47.49
2019-05-03T14:10:11.562Z,46.58
2019-05-03T14:11:11.577Z,44.53
2019-05-03T14:12:11.612Z,42.93
2019-05-03T14:13:11.595Z,41.38
2019-05-03T14:14:11.606Z,41.66
2019-05-03T14:15:11.634Z,42.14
2019-05-03T14:16:11.651Z,41.76
2019-05-03T14:17:11.656Z,41.03
2019-05-03T14:18:11.674Z,40.28
2019-05-03T14:19:11.682Z,39.39
2019-05-03T14:20:11.698Z,40.68
2019-05-03T14:21:11.716Z,42.18
2019-05-03T14:22:11.719Z,42.94
2019-05-03T14:23:11.739Z,43.38
2019-05-03T14:24:11.767Z,44.54
2019-05-03T14:25:11.768Z,45.40
2019-05-03T14:26:11.774Z,46.34
2019-05-03T14:27:11.786Z,46.60
2019-05-03T14:28:11.793Z,46.77
2019-05-03T14:29:11.809Z,47.71
2019-05-03T14:30:11.817Z,48.85
2019-05-03T14:31:11.824Z,48.93
2019-05-03T14:32:24.751Z,49.60
2019-05-03T14:33:11.868Z,49.36
2019-05-03T14:34:11.894Z,48.69
2019-05-03T14:35:11.901Z,48.40
2019-05-03T14:36:11.895Z,47.51
2019-05-03T14:37:11.910Z,48.85
2019-05-03T14:38:11.929Z,49.79
2019-05-03T14:39:11.931Z,49.43
2019-05-03T14:40:14.503Z,48.78
2019-05-03T14:41:11.953Z,48.21
2019-05-03T14:42:11.959Z,49.00
2019-05-03T14:43:11.977Z,47.49
2019-05-03T14:44:14.774Z,44.54
2019-05-03T14:45:12.007Z,44.15
2019-05-03T14:46:12.087Z,43.94
2019-05-03T14:47:12.026Z,45.00
2019-05-03T14:48:12.035Z,45.83
2019-05-03T14:49:12.046Z,46.17
2019-05-03T14:50:12.057Z,48.38
2019-05-03T14:51:12.273Z,48.18
2019-05-03T14:52:12.077Z,48.78
2019-05-03T14:53:12.083Z,47.44
2019-05-03T14:54:12.095Z,47.44
2019-05-03T14:55:12.119Z,46.19
2019-05-03T14:56:12.125Z,46.96
2019-05-03T14:57:12.157Z,47.32